Time;durP1;ratioP1;P1;durP2;ratioP2;P2;SDS_P1;SDS_P2;PMS_P1;PMS_P2;Temp;Humidity;BMP_temperature;BMP_pressure;BME280_temperature;BME280_humidity;BME280_pressure;Samples;Min_cycle;Max_cycle;Signal;HPM_P1;HPM_P2
2021/03/10 00:01:57;;;;;;;8.80;3.72;;;2.00;99.90;;;;;;5048691;28;20511;-83
2021/03/10 00:04:22;;;;;;;8.52;4.15;;;1.90;99.90;;;;;;5048882;28;20045;-83
2021/03/10 00:06:48;;;;;;;9.73;4.38;;;1.90;99.90;;;;;;5049593;28;20037;-82
2021/03/10 00:09:14;;;;;;;9.23;4.32;;;1.70;99.90;;;;;;5049168;28;20542;-83
2021/03/10 00:11:40;;;;;;;8.05;4.43;;;1.70;99.90;;;;;;5049803;28;20064;-82
2021/03/10 00:14:05;;;;;;;8.85;5.03;;;1.70;99.90;;;;;;5034089;28;20037;-82
2021/03/10 00:16:31;;;;;;;7.90;4.45;;;1.60;99.90;;;;;;5034546;28;20041;-83
2021/03/10 00:18:57;;;;;;;7.55;4.40;;;1.50;99.90;;;;;;5049831;28;20033;-82
2021/03/10 00:21:23;;;;;;;7.90;4.22;;;1.40;99.90;;;;;;5048575;28;20128;-82
2021/03/10 00:23:49;;;;;;;7.75;3.65;;;1.40;99.90;;;;;;5048473;28;20049;-83
2021/03/10 00:26:14;;;;;;;7.15;3.15;;;1.20;99.90;;;;;;5048000;28;20036;-82
2021/03/10 00:28:40;;;;;;;7.90;3.65;;;1.30;99.90;;;;;;5065160;28;20133;-83
2021/03/10 00:31:06;;;;;;;9.25;3.80;;;1.30;99.90;;;;;;5048478;28;20040;-83
2021/03/10 00:33:31;;;;;;;9.05;3.67;;;1.20;99.90;;;;;;5048352;28;20095;-82
2021/03/10 00:35:57;;;;;;;7.35;4.03;;;1.10;99.90;;;;;;5048158;28;20033;-82
2021/03/10 00:38:23;;;;;;;6.20;3.25;;;1.10;99.90;;;;;;5048372;28;20460;-82
2021/03/10 00:40:49;;;;;;;8.20;2.35;;;1.10;99.90;;;;;;5064881;28;20072;-83
2021/03/10 00:43:15;;;;;;;7.93;3.95;;;1.00;99.90;;;;;;5048068;28;20439;-82
2021/03/10 00:45:40;;;;;;;8.85;4.18;;;1.00;99.90;;;;;;5047977;28;20037;-82
2021/03/10 00:48:06;;;;;;;6.60;3.58;;;0.90;99.90;;;;;;5048103;28;20040;-82
2021/03/10 00:50:32;;;;;;;7.43;3.53;;;0.90;99.90;;;;;;5048233;28;20405;-82
2021/03/10 00:52:58;;;;;;;7.32;3.20;;;0.90;99.90;;;;;;5048043;28;20041;-82
2021/03/10 00:55:23;;;;;;;9.05;4.50;;;1.00;99.90;;;;;;5048026;28;20101;-82
2021/03/10 00:57:49;;;;;;;7.75;2.92;;;1.00;99.90;;;;;;5047892;28;20044;-82
2021/03/10 01:00:17;;;;;;;5.13;2.30;;;1.10;99.90;;;;;;5047848;28;20033;-82
2021/03/10 01:02:43;;;;;;;7.90;3.60;;;1.10;99.90;;;;;;5047617;28;20060;-82
2021/03/10 01:05:49;;;;;;;6.28;3.03;;;1.10;99.90;;;;;;5047813;28;20037;-83
2021/03/10 01:08:15;;;;;;;6.22;2.47;;;1.20;99.90;;;;;;5003544;28;20034;-82
2021/03/10 01:10:41;;;;;;;5.53;1.65;;;1.30;99.90;;;;;;4987609;28;20045;-82
2021/03/10 01:13:07;;;;;;;7.80;3.13;;;1.50;99.90;;;;;;5003690;28;20314;-82
2021/03/10 01:15:33;;;;;;;8.02;3.42;;;1.40;99.90;;;;;;4983174;28;20111;-82
2021/03/10 01:17:59;;;;;;;6.50;3.05;;;1.50;99.90;;;;;;4984142;28;20054;-82
2021/03/10 01:20:26;;;;;;;9.18;3.17;;;1.60;99.90;;;;;;5043401;28;20124;-82
2021/03/10 01:22:51;;;;;;;7.75;3.35;;;1.60;99.90;;;;;;5047625;28;20131;-82
2021/03/10 01:25:18;;;;;;;24.15;4.85;;;1.70;99.90;;;;;;5031148;28;20052;-82
2021/03/10 01:27:44;;;;;;;7.93;3.47;;;1.80;99.90;;;;;;5031192;28;20033;-82
2021/03/10 01:30:11;;;;;;;8.25;3.72;;;1.90;99.90;;;;;;5047507;28;20037;-82
2021/03/10 01:32:37;;;;;;;9.85;4.35;;;1.90;99.90;;;;;;5030894;28;20036;-82
2021/03/10 01:35:05;;;;;;;9.13;4.07;;;1.90;99.90;;;;;;5030605;28;20041;-82
2021/03/10 01:37:31;;;;;;;9.02;4.50;;;2.00;99.90;;;;;;5031828;28;20041;-82
2021/03/10 01:39:57;;;;;;;11.48;4.60;;;2.00;99.90;;;;;;5051614;28;20064;-82
2021/03/10 01:42:23;;;;;;;9.10;4.00;;;2.00;99.90;;;;;;5051453;28;20053;-82
2021/03/10 01:44:50;;;;;;;10.52;4.40;;;1.90;99.90;;;;;;5051646;28;20037;-83
2021/03/10 01:47:16;;;;;;;9.65;4.38;;;2.00;99.90;;;;;;5069397;28;20071;-82
2021/03/10 01:49:42;;;;;;;9.32;5.00;;;1.90;99.90;;;;;;5034838;28;20100;-83
2021/03/10 01:52:08;;;;;;;10.32;5.78;;;1.80;99.90;;;;;;5051475;28;20036;-82
2021/03/10 01:54:35;;;;;;;7.35;4.05;;;1.80;99.90;;;;;;5051168;28;20037;-82
2021/03/10 01:57:01;;;;;;;9.80;4.72;;;1.80;99.90;;;;;;5051371;28;20043;-83
2021/03/10 01:59:27;;;;;;;8.20;4.03;;;1.70;99.90;;;;;;5051227;28;20048;-82
2021/03/10 02:01:53;;;;;;;8.65;3.92;;;1.60;99.90;;;;;;5051092;28;20049;-82
2021/03/10 02:04:18;;;;;;;8.07;3.78;;;1.60;99.90;;;;;;5051080;28;20037;-82
2021/03/10 02:07:19;;;;;;;8.60;3.80;;;1.60;99.90;;;;;;5039144;23;20091;-82
2021/03/10 02:09:55;;;;;;;9.55;4.32;;;1.50;99.90;;;;;;4936769;29;20063;-83
2021/03/10 02:12:40;;;;;;;8.82;4.47;;;1.30;99.90;;;;;;4970164;28;20051;-82
2021/03/10 02:15:21;;;;;;;8.65;4.00;;;1.30;99.90;;;;;;5005099;28;20035;-82
2021/03/10 02:17:54;;;;;;;;;;;1.30;99.90;;;;;;4957412;28;20106;-82
2021/03/10 02:20:29;;;;;;;8.95;3.38;;;1.30;99.90;;;;;;4972869;28;19917;-82
2021/03/10 02:23:05;;;;;;;9.27;3.28;;;1.30;99.90;;;;;;4956888;28;20055;-82
2021/03/10 02:26:09;;;;;;;6.30;3.30;;;1.30;99.90;;;;;;4972670;28;20043;-82
2021/03/10 02:28:37;;;;;;;9.82;3.90;;;1.20;99.90;;;;;;4972691;28;20502;-83
2021/03/10 02:31:06;;;;;;;9.30;4.15;;;1.00;99.90;;;;;;4956467;28;20070;-83
2021/03/10 02:33:37;;;;;;;10.05;4.55;;;1.00;99.90;;;;;;4956716;28;20047;-84
2021/03/10 02:36:08;;;;;;;8.45;4.28;;;0.90;99.90;;;;;;4956212;28;20042;-82
2021/03/10 02:38:35;;;;;;;8.05;4.25;;;0.90;99.90;;;;;;4972698;28;20039;-82
2021/03/10 02:41:02;;;;;;;12.05;4.95;;;1.00;99.90;;;;;;4988601;28;20090;-82
2021/03/10 02:43:27;;;;;;;11.50;4.95;;;1.00;99.90;;;;;;5004558;28;20074;-82
2021/03/10 02:45:54;;;;;;;9.68;4.82;;;0.90;99.90;;;;;;4972008;28;20050;-83
2021/03/10 02:48:22;;;;;;;9.60;4.50;;;0.90;99.90;;;;;;4955942;28;20043;-82
2021/03/10 02:50:49;;;;;;;8.65;4.22;;;0.90;99.90;;;;;;4971388;28;20109;-82
2021/03/10 02:53:16;;;;;;;10.38;4.82;;;0.80;99.90;;;;;;4957488;28;20046;-83
2021/03/10 02:55:41;;;;;;;11.70;5.40;;;0.80;99.90;;;;;;4975048;28;20042;-82
2021/03/10 02:58:08;;;;;;;11.00;5.03;;;0.70;99.90;;;;;;4991210;28;20054;-83
2021/03/10 03:00:36;;;;;;;9.20;4.68;;;0.70;99.90;;;;;;4991108;28;20069;-82
2021/03/10 03:03:03;;;;;;;9.80;4.93;;;0.70;99.90;;;;;;4974810;28;20049;-82
2021/03/10 03:05:49;;;;;;;8.90;4.13;;;0.60;99.90;;;;;;4974690;28;20043;-82
2021/03/10 03:08:15;;;;;;;9.55;4.90;;;0.80;99.90;;;;;;4935159;29;20449;-82
2021/03/10 03:10:42;;;;;;;11.32;4.78;;;0.80;99.90;;;;;;4951374;29;20507;-82
2021/03/10 03:13:14;;;;;;;13.38;5.82;;;0.80;99.90;;;;;;4951283;29;20035;-82
2021/03/10 03:15:44;;;;;;;11.18;5.18;;;0.90;99.90;;;;;;4930223;29;20055;-82
2021/03/10 03:18:11;;;;;;;10.57;4.88;;;0.90;99.90;;;;;;4947749;29;20473;-82
2021/03/10 03:20:37;;;;;;;11.40;6.00;;;0.90;99.90;;;;;;4947806;29;20050;-81
2021/03/10 03:23:04;;;;;;;11.88;5.28;;;1.00;99.90;;;;;;4947782;29;20056;-82
2021/03/10 03:25:34;;;;;;;12.27;4.78;;;1.00;99.90;;;;;;4947622;29;20054;-82
2021/03/10 03:28:05;;;;;;;10.90;5.18;;;1.10;99.90;;;;;;4946625;29;20075;-82
2021/03/10 03:30:35;;;;;;;16.10;8.20;;;1.20;99.90;;;;;;4915793;29;20035;-82
2021/03/10 03:33:05;;;;;;;;;;;1.40;99.90;;;;;;4915832;29;20043;-82
2021/03/10 03:35:31;;;;;;;11.02;5.22;;;1.30;99.90;;;;;;4931569;29;19918;-82
2021/03/10 03:37:57;;;;;;;11.77;5.47;;;1.30;99.90;;;;;;4931528;29;20036;-81
2021/03/10 03:40:25;;;;;;;10.40;4.75;;;1.30;99.90;;;;;;4947431;29;20040;-82
2021/03/10 03:42:51;;;;;;;10.60;4.57;;;1.20;99.90;;;;;;4931380;29;20091;-82
2021/03/10 03:45:19;;;;;;;11.77;5.63;;;1.30;99.90;;;;;;4941420;29;20127;-82
2021/03/10 03:47:49;;;;;;;13.27;6.07;;;1.40;99.90;;;;;;4967469;29;20175;-80
2021/03/10 03:50:15;;;;;;;15.38;6.40;;;1.50;99.90;;;;;;4976263;28;20041;-82
2021/03/10 03:52:42;;;;;;;12.88;5.82;;;1.50;99.90;;;;;;4989955;28;20038;-82
2021/03/10 03:55:09;;;;;;;14.32;6.97;;;1.50;99.90;;;;;;4973825;28;20097;-82
2021/03/10 03:57:35;;;;;;;13.23;6.28;;;1.60;99.90;;;;;;4990012;28;20077;-82
2021/03/10 04:00:03;;;;;;;13.80;6.30;;;1.50;99.90;;;;;;4990068;28;20088;-82
2021/03/10 04:02:39;;;;;;;13.73;6.47;;;1.60;99.90;;;;;;4990440;28;20045;-83
2021/03/10 04:05:06;;;;;;;14.95;6.40;;;1.70;99.90;;;;;;4989552;28;20073;-82
2021/03/10 04:07:32;;;;;;;14.95;6.93;;;1.80;99.90;;;;;;4973613;28;20110;-81
2021/03/10 04:09:58;;;;;;;12.98;6.00;;;1.90;99.90;;;;;;5007446;28;20046;-82
2021/03/10 04:12:23;;;;;;;14.73;7.75;;;1.80;99.90;;;;;;5006018;28;20062;-82
2021/03/10 04:14:49;;;;;;;16.83;7.00;;;1.90;99.90;;;;;;5022443;28;20046;-82
2021/03/10 04:17:15;;;;;;;14.98;7.65;;;1.90;99.90;;;;;;4972013;28;20043;-82
2021/03/10 04:19:41;;;;;;;13.35;6.10;;;1.90;99.90;;;;;;5002654;28;20039;-82
2021/03/10 04:22:19;;;;;;;14.95;7.38;;;2.00;99.90;;;;;;5106254;27;716471;-82
2021/03/10 04:24:45;;;;;;;15.05;7.65;;;2.00;99.90;;;;;;5085350;28;20028;-83
2021/03/10 04:27:11;;;;;;;13.73;6.75;;;2.00;99.90;;;;;;5102287;28;20076;-83
2021/03/10 04:29:36;;;;;;;13.63;6.72;;;2.10;99.90;;;;;;5085230;28;20028;-82
2021/03/10 04:32:02;;;;;;;17.75;7.70;;;2.00;99.90;;;;;;5085206;28;20035;-81
2021/03/10 04:34:28;;;;;;;15.23;8.35;;;2.10;99.90;;;;;;5085030;28;20118;-81
2021/03/10 04:36:53;;;;;;;16.80;7.28;;;2.10;99.90;;;;;;5084966;28;20056;-81
2021/03/10 04:39:19;;;;;;;16.35;7.32;;;2.10;99.90;;;;;;5085069;28;20111;-82
2021/03/10 04:41:44;;;;;;;19.42;7.55;;;2.20;99.90;;;;;;5084849;28;20033;-81
2021/03/10 04:44:10;;;;;;;15.95;7.72;;;2.20;99.90;;;;;;5084977;28;20074;-81
2021/03/10 04:46:36;;;;;;;16.48;6.25;;;2.30;99.90;;;;;;5084890;28;20473;-81
2021/03/10 04:49:01;;;;;;;13.98;6.82;;;2.30;99.90;;;;;;5084809;28;20028;-81
2021/03/10 04:51:27;;;;;;;13.98;7.07;;;2.30;99.90;;;;;;5081645;28;20063;-81
2021/03/10 04:53:52;;;;;;;17.38;7.53;;;2.40;99.90;;;;;;5081313;28;20052;-81
2021/03/10 04:56:18;;;;;;;15.23;6.63;;;2.40;99.90;;;;;;5081387;28;20033;-81
2021/03/10 04:58:43;;;;;;;15.25;8.55;;;2.50;99.90;;;;;;5081658;28;20102;-81
2021/03/10 05:01:09;;;;;;;18.15;9.68;;;2.70;99.90;;;;;;5081092;28;20480;-81
2021/03/10 05:03:34;;;;;;;16.60;8.40;;;2.70;99.90;;;;;;5081130;28;20048;-81
2021/03/10 05:06:00;;;;;;;15.55;8.57;;;2.60;99.90;;;;;;5080867;28;20269;-82
2021/03/10 05:08:26;;;;;;;15.73;8.50;;;2.60;99.90;;;;;;5098043;28;20032;-81
2021/03/10 05:10:51;;;;;;;14.32;7.75;;;2.70;99.90;;;;;;5081068;28;20041;-82
2021/03/10 05:13:17;;;;;;;12.85;7.45;;;2.60;99.90;;;;;;5080885;28;20110;-82
2021/03/10 05:15:42;;;;;;;15.30;8.93;;;2.60;99.90;;;;;;5091805;28;20119;-81
2021/03/10 05:18:08;;;;;;;13.98;7.97;;;2.60;99.90;;;;;;5078656;28;20021;-81
2021/03/10 05:20:34;;;;;;;14.05;7.80;;;2.60;99.90;;;;;;5083519;28;20032;-82
2021/03/10 05:22:59;;;;;;;13.27;6.68;;;2.70;99.90;;;;;;5084059;28;20051;-82
2021/03/10 05:25:25;;;;;;;14.95;7.50;;;2.70;99.90;;;;;;5102263;28;20047;-81
2021/03/10 05:27:50;;;;;;;14.10;7.55;;;2.70;99.90;;;;;;5084147;28;20059;-81
2021/03/10 05:30:17;;;;;;;14.23;7.80;;;2.70;99.90;;;;;;5097883;28;20032;-82
2021/03/10 05:32:42;;;;;;;12.20;7.07;;;2.70;99.90;;;;;;5089944;28;20032;-81
2021/03/10 05:35:09;;;;;;;14.05;8.00;;;2.80;99.90;;;;;;5070820;28;20067;-83
2021/03/10 05:37:35;;;;;;;11.73;7.47;;;2.80;99.90;;;;;;5069523;28;20538;-82
2021/03/10 05:40:01;;;;;;;16.35;8.52;;;2.80;99.90;;;;;;5070897;28;20024;-83
2021/03/10 05:42:27;;;;;;;12.15;7.90;;;2.80;99.90;;;;;;5068705;28;20040;-82
2021/03/10 05:44:52;;;;;;;13.15;6.70;;;2.80;99.90;;;;;;5053790;28;20048;-82
2021/03/10 05:47:19;;;;;;;15.32;8.00;;;2.80;99.90;;;;;;5048317;28;20481;-82
2021/03/10 05:49:46;;;;;;;12.98;7.55;;;2.90;99.90;;;;;;5069591;28;20036;-82
2021/03/10 05:52:13;;;;;;;16.77;8.40;;;2.80;99.90;;;;;;5066586;28;20033;-84
2021/03/10 05:54:43;;;;;;;17.15;8.23;;;2.90;99.90;;;;;;5050147;28;20096;-84
2021/03/10 05:57:08;;;;;;;17.27;9.52;;;2.90;99.90;;;;;;5050164;28;20373;-84
2021/03/10 05:59:34;;;;;;;13.80;7.95;;;3.00;99.90;;;;;;5050169;28;20076;-84
2021/03/10 06:01:59;;;;;;;17.42;8.90;;;3.00;99.90;;;;;;5049947;28;20037;-84
2021/03/10 06:04:39;;;;;;;14.45;7.57;;;3.00;99.90;;;;;;5050044;28;20109;-84
2021/03/10 06:07:17;;;;;;;14.48;8.68;;;2.90;99.90;;;;;;5049935;28;20031;-84
2021/03/10 06:09:42;;;;;;;14.43;7.50;;;2.80;99.90;;;;;;5049754;28;20037;-85
2021/03/10 06:12:08;;;;;;;17.70;8.75;;;2.80;99.90;;;;;;5049888;28;20029;-84
2021/03/10 06:14:34;;;;;;;14.73;7.95;;;2.80;99.90;;;;;;5049997;28;20046;-85
2021/03/10 06:17:06;;;;;;;15.05;8.45;;;2.80;99.90;;;;;;5085977;28;20056;-85
2021/03/10 06:19:45;;;;;;;14.38;7.75;;;2.80;99.90;;;;;;5068676;28;20035;-84
2021/03/10 06:22:12;;;;;;;15.02;7.90;;;2.80;99.90;;;;;;5069124;28;20072;-84
2021/03/10 06:24:38;;;;;;;13.65;7.90;;;2.90;99.90;;;;;;5068876;28;20097;-84
2021/03/10 06:27:04;;;;;;;15.93;7.43;;;2.80;99.90;;;;;;5069129;28;20055;-84
2021/03/10 06:29:30;;;;;;;14.80;8.50;;;2.80;99.90;;;;;;5068885;28;20136;-84
2021/03/10 06:32:08;;;;;;;13.30;7.57;;;2.80;99.90;;;;;;5080855;28;20037;-84
2021/03/10 06:34:43;;;;;;;13.18;6.70;;;2.80;99.90;;;;;;5048640;28;20433;-84
2021/03/10 06:37:10;;;;;;;14.77;8.13;;;2.90;99.90;;;;;;5048339;28;20037;-84
2021/03/10 06:39:36;;;;;;;14.82;8.98;;;2.90;99.90;;;;;;5059665;28;20028;-84
2021/03/10 06:42:12;;;;;;;14.73;7.85;;;3.00;99.90;;;;;;5050579;28;20090;-84
2021/03/10 06:44:51;;;;;;;12.30;7.57;;;3.00;99.90;;;;;;5047417;28;20025;-84
2021/03/10 06:47:18;;;;;;;12.93;7.53;;;3.00;99.90;;;;;;5057675;28;20081;-83
2021/03/10 06:49:52;;;;;;;14.00;8.43;;;3.00;99.90;;;;;;5068538;28;20029;-82
2021/03/10 06:52:17;;;;;;;13.30;7.63;;;3.10;99.90;;;;;;5068374;28;20032;-83
2021/03/10 06:55:03;;;;;;;13.10;7.65;;;3.10;99.90;;;;;;5085125;28;20038;-82
2021/03/10 06:57:28;;;;;;;11.18;7.18;;;3.10;99.90;;;;;;5068261;28;20038;-84
2021/03/10 06:59:56;;;;;;;14.63;8.30;;;3.20;99.90;;;;;;5067968;28;20056;-84
2021/03/10 07:02:29;;;;;;;13.63;8.00;;;3.20;99.90;;;;;;5084919;28;20033;-83
2021/03/10 07:04:57;;;;;;;14.70;7.78;;;3.20;99.90;;;;;;5084848;28;20047;-84
2021/03/10 07:07:24;;;;;;;14.60;9.27;;;3.20;99.90;;;;;;5068473;28;20096;-85
2021/03/10 07:09:50;;;;;;;14.80;8.50;;;3.40;99.90;;;;;;5068356;28;20041;-85
2021/03/10 07:12:18;;;;;;;16.17;8.35;;;3.40;99.90;;;;;;5084944;28;20033;-85
2021/03/10 07:14:44;;;;;;;13.15;7.80;;;3.40;99.90;;;;;;5085259;28;20028;-84
2021/03/10 07:17:12;;;;;;;15.98;8.98;;;3.50;99.90;;;;;;5068284;28;20476;-85
2021/03/10 07:19:38;;;;;;;14.75;8.48;;;3.50;99.90;;;;;;5068224;28;20048;-84
2021/03/10 07:22:10;;;;;;;19.23;9.75;;;3.50;99.90;;;;;;5084722;28;20048;-85
2021/03/10 07:24:57;;;;;;;18.20;8.93;;;3.60;99.90;;;;;;5067831;28;20025;-84
2021/03/10 07:27:25;;;;;;;20.20;10.73;;;3.60;99.90;;;;;;5085030;28;20040;-85
2021/03/10 07:29:58;;;;;;;19.55;10.30;;;3.70;99.90;;;;;;5084911;28;20031;-84
2021/03/10 07:32:25;;;;;;;19.98;10.43;;;3.80;99.90;;;;;;5067981;28;20052;-85
2021/03/10 07:35:09;;;;;;;18.75;9.82;;;3.80;99.90;;;;;;5067686;28;20396;-85
2021/03/10 07:37:36;;;;;;;21.33;10.80;;;3.90;99.90;;;;;;5084647;28;20024;-85
2021/03/10 07:40:20;;;;;;;19.10;10.65;;;3.90;99.90;;;;;;5067814;28;20033;-85
2021/03/10 07:42:54;;;;;;;20.75;10.82;;;4.00;99.90;;;;;;5067835;28;20086;-85
2021/03/10 07:45:22;;;;;;;22.02;12.20;;;4.10;99.90;;;;;;5067669;28;20096;-85
2021/03/10 07:47:56;;;;;;;22.45;11.88;;;4.10;99.90;;;;;;5067873;28;20036;-85
2021/03/10 07:50:24;;;;;;;30.05;14.15;;;4.20;99.90;;;;;;5064255;28;20082;-85
2021/03/10 07:52:56;;;;;;;30.17;14.77;;;4.20;99.90;;;;;;5047624;28;20036;-85
2021/03/10 07:55:22;;;;;;;27.00;14.25;;;4.30;99.90;;;;;;5063814;28;20029;-85
2021/03/10 07:57:55;;;;;;;27.75;14.05;;;4.40;99.90;;;;;;5047632;28;20049;-85
2021/03/10 08:00:38;;;;;;;30.92;14.60;;;4.40;99.90;;;;;;5047906;28;20091;-83
2021/03/10 08:03:04;;;;;;;30.38;14.77;;;4.50;99.90;;;;;;5047514;28;20056;-83
2021/03/10 08:05:30;;;;;;;35.53;16.63;;;4.50;99.90;;;;;;5063978;28;20044;-83
2021/03/10 08:08:13;;;;;;;32.45;16.25;;;4.50;99.90;;;;;;5064261;28;20052;-83
2021/03/10 08:10:40;;;;;;;35.47;17.58;;;4.60;99.90;;;;;;5047585;28;20072;-83
2021/03/10 08:13:22;;;;;;;32.00;17.38;;;4.60;99.90;;;;;;5047537;28;20048;-83
2021/03/10 08:15:48;;;;;;;35.28;17.40;;;4.70;99.90;;;;;;5053160;28;20025;-84
2021/03/10 08:18:19;;;;;;;37.85;19.60;;;4.70;99.90;;;;;;5083994;28;20029;-86
2021/03/10 08:20:45;;;;;;;43.17;23.75;;;4.80;99.90;;;;;;5066935;28;20052;-85
2021/03/10 08:23:11;;;;;;;34.17;18.73;;;4.90;99.90;;;;;;5067328;28;20472;-85
2021/03/10 08:25:36;;;;;;;39.20;21.70;;;4.90;99.90;;;;;;5066974;28;20099;-85
2021/03/10 08:28:13;;;;;;;44.22;22.70;;;4.90;99.90;;;;;;5084326;28;20465;-85
2021/03/10 08:30:40;;;;;;;47.40;23.05;;;5.00;99.90;;;;;;5067404;28;20440;-85
2021/03/10 08:33:06;;;;;;;40.00;21.45;;;5.00;99.90;;;;;;5067294;28;20039;-83
2021/03/10 08:35:32;;;;;;;33.50;17.70;;;5.10;99.90;;;;;;5066992;28;20119;-83
2021/03/10 08:38:00;;;;;;;40.42;21.33;;;5.10;99.90;;;;;;5067166;28;20382;-83
2021/03/10 08:40:29;;;;;;;37.80;21.23;;;5.20;99.90;;;;;;5067268;28;20044;-84
2021/03/10 08:42:59;;;;;;;48.15;24.00;;;5.20;99.90;;;;;;5067401;28;20040;-83
2021/03/10 08:45:31;;;;;;;47.47;23.63;;;5.30;99.90;;;;;;5067016;28;20496;-83
2021/03/10 08:48:08;;;;;;;46.97;23.80;;;5.30;99.90;;;;;;5067285;28;20036;-85
2021/03/10 08:50:45;;;;;;;43.90;22.88;;;5.40;99.90;;;;;;5083863;28;20036;-86
2021/03/10 08:53:13;;;;;;;39.30;20.60;;;5.40;99.90;;;;;;5067089;28;20029;-85
2021/03/10 08:55:40;;;;;;;37.00;20.92;;;5.50;99.90;;;;;;5066991;28;20082;-86
2021/03/10 08:58:17;;;;;;;41.05;22.42;;;5.50;99.90;;;;;;5084119;28;20020;-86
2021/03/10 09:00:45;;;;;;;41.25;21.38;;;5.60;99.90;;;;;;5067230;28;20063;-85
2021/03/10 09:03:15;;;;;;;35.97;19.73;;;5.60;99.90;;;;;;5083845;28;20078;-86
2021/03/10 09:05:43;;;;;;;37.65;20.27;;;5.60;99.90;;;;;;5084926;28;20024;-85
2021/03/10 09:08:14;;;;;;;37.60;19.60;;;5.70;99.90;;;;;;5069484;28;20055;-85
2021/03/10 09:10:52;;;;;;;39.10;21.08;;;5.80;99.90;;;;;;5087215;28;20036;-86
2021/03/10 09:13:40;;;;;;;41.40;22.02;;;5.90;99.90;;;;;;5073623;28;20039;-86
2021/03/10 09:16:10;;;;;;;38.30;20.15;;;6.00;99.90;;;;;;5070465;28;20035;-86
2021/03/10 09:18:40;;;;;;;46.22;25.77;;;6.00;99.90;;;;;;5071270;28;20047;-85
2021/03/10 09:21:06;;;;;;;46.05;25.88;;;6.00;99.90;;;;;;5070247;28;20052;-85
2021/03/10 09:23:38;;;;;;;49.03;25.25;;;6.10;99.90;;;;;;5071230;28;20074;-86
2021/03/10 09:26:06;;;;;;;43.78;24.33;;;6.00;99.90;;;;;;5070698;28;20070;-86
2021/03/10 09:28:40;;;;;;;47.97;24.75;;;6.20;99.90;;;;;;5087038;28;20025;-85
2021/03/10 09:31:13;;;;;;;39.47;22.30;;;6.20;99.90;;;;;;5071073;28;20044;-85
2021/03/10 09:33:40;;;;;;;41.90;23.75;;;6.30;99.90;;;;;;5070320;28;20162;-86
2021/03/10 09:36:08;;;;;;;43.70;24.75;;;6.40;99.90;;;;;;5070176;28;20032;-86
2021/03/10 09:38:42;;;;;;;45.92;25.92;;;6.40;99.90;;;;;;5071118;28;20087;-86
2021/03/10 09:41:13;;;;;;;45.63;25.35;;;6.60;99.90;;;;;;5070350;28;20032;-85
2021/03/10 09:43:42;;;;;;;52.08;29.48;;;6.50;99.90;;;;;;5086755;28;20021;-85
2021/03/10 09:46:13;;;;;;;50.97;28.75;;;6.50;99.90;;;;;;5070947;28;20036;-86
2021/03/10 09:48:41;;;;;;;52.20;29.70;;;6.50;99.90;;;;;;5070163;28;20055;-86
2021/03/10 09:51:16;;;;;;;;;;;6.60;99.90;;;;;;5066974;28;20100;-86
2021/03/10 09:53:45;;;;;;;45.75;25.73;;;6.50;99.90;;;;;;5066831;28;20364;-86
2021/03/10 09:56:16;;;;;;;43.85;24.73;;;6.50;99.90;;;;;;5050331;28;20024;-85
2021/03/10 09:58:51;;;;;;;47.47;24.90;;;6.50;99.90;;;;;;5050483;28;20085;-85
2021/03/10 10:01:24;;;;;;;42.55;23.15;;;6.50;99.90;;;;;;5067205;28;20056;-84
2021/03/10 10:03:56;;;;;;;42.88;24.52;;;6.60;99.90;;;;;;5049599;28;20052;-85
2021/03/10 10:06:25;;;;;;;42.13;24.08;;;6.50;99.90;;;;;;5050404;28;20048;-86
2021/03/10 10:08:53;;;;;;;46.80;26.27;;;6.60;99.90;;;;;;5067287;28;20021;-85
2021/03/10 10:11:22;;;;;;;45.08;26.10;;;6.60;99.90;;;;;;5068974;28;20029;-86
2021/03/10 10:13:49;;;;;;;44.45;24.60;;;6.60;99.90;;;;;;5066354;28;20112;-85
2021/03/10 10:16:16;;;;;;;46.38;25.52;;;6.70;99.90;;;;;;5059676;28;20024;-86
2021/03/10 10:18:43;;;;;;;45.58;27.08;;;6.80;99.90;;;;;;5069410;28;20028;-86
2021/03/10 10:21:11;;;;;;;44.97;26.77;;;6.80;99.90;;;;;;5086177;28;20059;-86
2021/03/10 10:23:37;;;;;;;43.78;25.25;;;6.90;99.90;;;;;;5071154;28;20025;-86
2021/03/10 10:26:09;;;;;;;43.05;25.70;;;7.00;99.90;;;;;;5072590;28;20059;-85
2021/03/10 10:28:37;;;;;;;44.65;24.77;;;7.00;99.90;;;;;;5070170;28;20028;-86
2021/03/10 10:31:05;;;;;;;38.85;23.35;;;7.00;99.90;;;;;;5070062;28;20028;-86
2021/03/10 10:33:35;;;;;;;41.88;24.50;;;7.00;99.90;;;;;;5069867;28;20021;-86
2021/03/10 10:36:00;;;;;;;41.03;24.63;;;7.00;99.90;;;;;;5069181;28;20055;-86
2021/03/10 10:38:26;;;;;;;39.60;23.33;;;7.00;99.90;;;;;;5069115;28;20092;-86
2021/03/10 10:40:55;;;;;;;40.40;23.57;;;7.10;99.90;;;;;;5069845;28;20502;-86
2021/03/10 10:43:21;;;;;;;40.10;22.63;;;7.20;99.90;;;;;;5068852;28;20035;-86
2021/03/10 10:45:50;;;;;;;36.83;21.38;;;7.20;99.90;;;;;;5069567;28;20038;-85
2021/03/10 10:48:18;;;;;;;39.33;23.35;;;7.30;99.90;;;;;;5085609;28;20098;-86
2021/03/10 10:51:02;;;;;;;37.22;20.58;;;7.30;99.90;;;;;;5085990;28;20035;-86
2021/03/10 10:53:38;;;;;;;38.03;22.40;;;7.40;99.90;;;;;;5085660;28;20025;-86
2021/03/10 10:56:05;;;;;;;36.83;21.75;;;7.50;99.90;;;;;;5068969;28;20032;-86
2021/03/10 10:58:31;;;;;;;38.13;21.45;;;7.60;99.90;;;;;;5085120;28;20036;-87
2021/03/10 11:00:58;;;;;;;33.03;20.52;;;7.70;99.90;;;;;;5085337;28;20043;-87
2021/03/10 11:03:25;;;;;;;31.90;18.73;;;7.80;99.90;;;;;;5085225;28;20029;-86
2021/03/10 11:05:53;;;;;;;37.58;21.65;;;7.90;99.90;;;;;;5069061;28;20030;-87
2021/03/10 11:08:23;;;;;;;33.95;19.52;;;7.90;99.90;;;;;;5069123;28;20067;-86
2021/03/10 11:10:49;;;;;;;36.40;21.65;;;8.00;99.90;;;;;;5068496;28;20029;-86
2021/03/10 11:13:15;;;;;;;30.80;19.10;;;7.90;99.90;;;;;;5068202;28;20056;-86
2021/03/10 11:15:56;;;;;;;;;;;8.00;99.90;;;;;;5085345;28;20020;-86
2021/03/10 11:18:42;;;;;;;34.92;20.58;;;7.90;99.90;;;;;;5084653;28;19931;-87
2021/03/10 11:21:07;;;;;;;38.28;21.23;;;7.80;99.90;;;;;;5068102;28;20504;-86
2021/03/10 11:23:33;;;;;;;33.78;20.40;;;7.90;99.90;;;;;;5084788;28;20053;-87
2021/03/10 11:26:01;;;;;;;32.40;20.23;;;7.90;99.90;;;;;;5068289;28;20028;-87
2021/03/10 11:28:28;;;;;;;31.63;19.88;;;8.00;99.90;;;;;;5068343;28;20059;-86
2021/03/10 11:30:55;;;;;;;32.30;19.05;;;8.00;99.90;;;;;;5067990;28;20055;-86
2021/03/10 11:33:21;;;;;;;30.13;19.77;;;7.80;99.90;;;;;;5068160;28;20024;-87
2021/03/10 11:35:50;;;;;;;29.05;16.17;;;7.80;99.90;;;;;;5062352;23;20422;-86
2021/03/10 11:38:17;;;;;;;33.35;18.83;;;7.90;99.90;;;;;;5025042;28;20169;-86
2021/03/10 11:40:46;;;;;;;30.92;18.25;;;7.90;99.90;;;;;;5009168;28;20037;-89
2021/03/10 11:43:16;;;;;;;29.33;16.50;;;8.00;99.90;;;;;;5025078;28;20033;-87
2021/03/10 11:45:42;;;;;;;29.02;17.48;;;7.90;99.90;;;;;;5024854;28;20060;-86
2021/03/10 11:48:11;;;;;;;24.50;15.60;;;8.00;99.90;;;;;;5008752;28;20025;-87
2021/03/10 11:50:37;;;;;;;30.35;16.63;;;8.00;99.90;;;;;;5008520;28;20056;-87
2021/03/10 11:53:08;;;;;;;30.15;17.80;;;8.00;99.90;;;;;;5008402;28;20057;-86
2021/03/10 11:55:35;;;;;;;28.13;17.05;;;8.00;99.90;;;;;;5008535;28;20105;-86
2021/03/10 11:58:01;;;;;;;31.50;15.90;;;8.10;99.90;;;;;;5008391;28;20033;-86
2021/03/10 12:00:28;;;;;;;25.25;13.93;;;8.20;99.90;;;;;;5008321;28;20038;-87
2021/03/10 12:03:00;;;;;;;21.80;14.13;;;8.20;99.90;;;;;;5009087;28;20034;-86
2021/03/10 12:05:37;;;;;;;21.73;13.50;;;8.30;99.90;;;;;;5009739;28;20026;-86
2021/03/10 12:08:03;;;;;;;22.70;12.93;;;8.30;99.90;;;;;;5008085;28;20109;-86
2021/03/10 12:10:29;;;;;;;21.20;11.93;;;8.40;99.90;;;;;;5025637;28;20060;-86
2021/03/10 12:12:55;;;;;;;21.45;13.13;;;8.40;99.90;;;;;;5007796;28;20033;-85
2021/03/10 12:15:20;;;;;;;20.17;12.60;;;8.30;99.90;;;;;;5007832;28;20064;-87
2021/03/10 12:17:46;;;;;;;18.15;11.23;;;8.50;99.90;;;;;;5024808;28;20102;-86
2021/03/10 12:20:12;;;;;;;19.25;11.82;;;8.50;99.90;;;;;;5008081;28;20097;-86
2021/03/10 12:22:38;;;;;;;20.88;11.55;;;8.60;99.90;;;;;;5008203;28;20045;-86
2021/03/10 12:25:05;;;;;;;22.27;12.75;;;8.60;99.90;;;;;;5040740;28;20057;-86
2021/03/10 12:27:31;;;;;;;23.58;14.20;;;8.60;99.90;;;;;;5024411;28;20033;-87
2021/03/10 12:29:58;;;;;;;25.23;15.38;;;8.70;99.90;;;;;;5024100;28;20026;-86
2021/03/10 12:32:25;;;;;;;20.83;12.80;;;8.70;99.90;;;;;;5007933;28;20071;-87
2021/03/10 12:34:55;;;;;;;23.02;14.63;;;8.80;99.90;;;;;;5007811;28;20072;-87
2021/03/10 12:37:21;;;;;;;21.77;12.50;;;8.80;99.90;;;;;;5008488;28;20054;-87
2021/03/10 12:39:47;;;;;;;23.35;12.48;;;8.90;99.90;;;;;;5008367;28;20057;-87
2021/03/10 12:42:13;;;;;;;22.08;13.68;;;8.90;99.90;;;;;;5008705;28;20069;-87
2021/03/10 12:44:40;;;;;;;24.38;14.10;;;9.00;99.90;;;;;;5011508;28;20030;-86
2021/03/10 12:47:05;;;;;;;21.48;13.48;;;8.90;99.90;;;;;;5011864;28;20053;-87
2021/03/10 12:49:32;;;;;;;25.10;14.13;;;9.10;99.90;;;;;;5011308;28;20099;-86
2021/03/10 12:51:57;;;;;;;21.52;13.85;;;9.00;99.90;;;;;;5011627;28;20097;-86
2021/03/10 12:54:24;;;;;;;22.15;14.05;;;9.00;99.90;;;;;;5011425;28;20037;-87